Time;durP1;ratioP1;P1;durP2;ratioP2;P2;SDS_P1;SDS_P2;PMS_P1;PMS_P2;Temp;Humidity;BMP_temperature;BMP_pressure;BME280_temperature;BME280_humidity;BME280_pressure;Samples;Min_cycle;Max_cycle;Signal;HPM_P1;HPM_P2
2022/12/12 00:01:45;;;;;;;171.00;38.40;;;;;;;-2.76;100.00;146751.44;5029624;28;20044;-63
2022/12/12 00:04:10;;;;;;;182.53;38.47;;;;;;;-2.76;100.00;146750.16;5029413;28;20330;-63
2022/12/12 00:06:36;;;;;;;189.67;39.03;;;;;;;-2.83;100.00;146732.22;5028305;28;20652;-63
2022/12/12 00:09:03;;;;;;;187.63;38.07;;;;;;;-2.92;100.00;146709.19;5029899;28;20044;-63
2022/12/12 00:11:28;;;;;;;186.27;40.13;;;;;;;-2.99;100.00;146693.84;5030465;28;20068;-63
2022/12/12 00:13:53;;;;;;;190.37;38.43;;;;;;;-3.04;100.00;146681.03;5029424;28;20370;-63
2022/12/12 00:16:19;;;;;;;207.87;39.60;;;;;;;-3.13;100.00;146658.03;5029687;28;20044;-63
2022/12/12 00:18:45;;;;;;;202.10;38.97;;;;;;;-3.34;100.00;146604.31;5031499;28;20171;-63
2022/12/12 00:21:21;;;;;;;187.07;37.90;;;;;;;-3.53;100.00;146556.97;5030975;28;20055;-63
2022/12/12 00:23:47;;;;;;;189.53;36.87;;;;;;;-3.74;100.00;146504.59;5030106;28;20037;-63
2022/12/12 00:26:25;;;;;;;208.73;40.93;;;;;;;-3.78;100.00;146493.06;5028728;28;20310;-63
2022/12/12 00:28:50;;;;;;;211.87;38.17;;;;;;;-3.74;100.00;146503.31;5029907;28;20030;-63
2022/12/12 00:31:16;;;;;;;227.07;38.90;;;;;;;-3.69;100.00;146517.38;5029086;28;20772;-63
2022/12/12 00:33:46;;;;;;;256.43;40.23;;;;;;;-3.78;100.00;146493.06;5033134;28;20021;-63
2022/12/12 00:36:12;;;;;;;232.20;40.93;;;;;;;-3.84;100.00;146479.03;5031567;28;20044;-63
2022/12/12 00:38:38;;;;;;;257.90;44.93;;;;;;;-3.71;100.00;146512.25;5029942;28;20315;-64
2022/12/12 00:41:05;;;;;;;300.37;45.97;;;;;;;-3.72;100.00;146509.72;5027998;28;20363;-63
2022/12/12 00:43:31;;;;;;;274.20;43.67;;;;;;;-3.74;100.00;146504.59;5030754;28;20469;-63
2022/12/12 00:46:00;;;;;;;279.83;44.77;;;;;;;-3.60;100.00;146539.09;5017026;28;20292;-63
2022/12/12 00:48:26;;;;;;;276.70;45.30;;;;;;;-3.59;100.00;146542.94;5024159;28;20296;-63
2022/12/12 00:50:52;;;;;;;268.73;44.87;;;;;;;-3.70;100.00;146514.81;5030279;28;20326;-63
2022/12/12 00:53:18;;;;;;;283.87;44.43;;;;;;;-3.74;100.00;146504.59;5028160;28;20033;-63
2022/12/12 00:55:43;;;;;;;260.47;42.73;;;;;;;-3.70;100.00;146514.81;5029023;28;20280;-63
2022/12/12 00:58:09;;;;;;;283.43;46.07;;;;;;;-3.69;100.00;146517.38;5028233;28;20119;-63
2022/12/12 01:00:34;;;;;;;316.33;46.93;;;;;;;-3.63;100.00;146532.72;5027562;28;20136;-63
2022/12/12 01:03:00;;;;;;;280.60;45.83;;;;;;;-3.75;100.00;146502.03;5027811;28;20029;-63
2022/12/12 01:05:26;;;;;;;298.27;46.30;;;;;;;-3.75;100.00;146502.03;5029459;28;20675;-63
2022/12/12 01:07:52;;;;;;;298.93;46.33;;;;;;;-3.78;100.00;146494.34;5029696;28;20425;-63
2022/12/12 01:10:18;;;;;;;300.43;47.07;;;;;;;-3.76;100.00;146498.16;5029429;28;20849;-63
2022/12/12 01:12:44;;;;;;;328.70;47.10;;;;;;;-3.77;100.00;146495.63;5020264;28;20359;-64
2022/12/12 01:15:10;;;;;;;289.83;46.10;;;;;;;-3.75;100.00;146502.03;5028186;28;20013;-63
2022/12/12 01:17:36;;;;;;;307.07;46.77;;;;;;;-3.79;100.00;146491.78;5030285;28;20037;-63
2022/12/12 01:20:17;;;;;;;304.70;47.13;;;;;;;-3.82;100.00;146484.13;5030696;28;20312;-63
2022/12/12 01:22:42;;;;;;;328.20;47.77;;;;;;;-3.88;100.00;146468.78;5030699;28;20740;-63
2022/12/12 01:25:10;;;;;;;328.33;48.47;;;;;;;-3.82;100.00;146484.13;5028851;28;20288;-63
2022/12/12 01:27:35;;;;;;;333.33;49.67;;;;;;;-3.84;100.00;146479.03;5029250;28;20469;-63
2022/12/12 01:30:01;;;;;;;313.17;47.90;;;;;;;-3.85;100.00;146476.47;5027231;28;20290;-64
2022/12/12 01:32:28;;;;;;;318.97;46.63;;;;;;;-3.94;100.00;146453.47;5026594;28;20374;-64
2022/12/12 01:34:53;;;;;;;343.07;48.13;;;;;;;-3.93;100.00;146456.00;5027945;28;20107;-64
2022/12/12 01:37:19;;;;;;;321.13;48.33;;;;;;;-3.88;100.00;146468.78;5029595;28;20703;-64
2022/12/12 01:39:44;;;;;;;337.40;46.43;;;;;;;-3.98;100.00;146444.53;5029782;28;20031;-64
2022/12/12 01:42:15;;;;;;;314.03;46.43;;;;;;;-4.07;100.00;146420.22;5032578;28;20382;-63
2022/12/12 01:44:40;;;;;;;300.40;46.87;;;;;;;-4.03;100.00;146430.44;5031353;28;20029;-63
2022/12/12 01:47:06;;;;;;;300.63;48.47;;;;;;;-4.10;100.00;146412.56;5032435;28;20294;-63
2022/12/12 01:49:33;;;;;;;286.43;43.67;;;;;;;-4.11;100.00;146411.31;5031424;28;20039;-63
2022/12/12 01:52:03;;;;;;;312.87;47.23;;;;;;;-4.04;100.00;146427.88;5033673;28;20029;-63
2022/12/12 01:54:33;;;;;;;322.37;47.13;;;;;;;-3.98;100.00;146443.25;5031013;28;20850;-63
2022/12/12 01:57:03;;;;;;;324.00;47.57;;;;;;;-3.93;100.00;146456.00;5032642;28;20291;-64
2022/12/12 01:59:32;;;;;;;321.95;48.50;;;;;;;-3.90;100.00;146463.66;5031505;28;20284;-64
2022/12/12 02:01:58;;;;;;;330.23;47.77;;;;;;;-3.85;100.00;146476.47;5026245;28;20057;-63
2022/12/12 02:04:24;;;;;;;329.77;49.17;;;;;;;-3.77;100.00;146496.91;5024641;28;20346;-64
2022/12/12 02:06:51;;;;;;;324.97;50.20;;;;;;;-3.58;100.00;146544.22;5038080;28;20029;-64
2022/12/12 02:09:19;;;;;;;331.27;50.53;;;;;;;-3.41;100.00;146587.66;5032902;28;20744;-64
2022/12/12 02:11:49;;;;;;;314.77;48.93;;;;;;;-3.29;100.00;146617.09;5030104;28;20308;-64
2022/12/12 02:14:20;;;;;;;319.10;51.63;;;;;;;-3.20;100.00;146640.13;5032709;28;20363;-64
2022/12/12 02:17:18;;;;;;;305.50;50.23;;;;;;;-3.13;100.00;146656.78;5031625;28;20298;-64
2022/12/12 02:19:59;;;;;;;290.43;49.40;;;;;;;-3.05;100.00;146677.22;5032283;28;20291;-63
2022/12/12 02:22:46;;;;;;;293.53;50.47;;;;;;;-3.01;100.00;146687.47;5021295;28;20275;-64
2022/12/12 02:25:40;;;;;;;340.47;64.13;;;;;;;-2.98;100.00;146696.41;5031565;28;20280;-64
2022/12/12 02:28:33;;;;;;;304.23;53.70;;;;;;;-2.96;100.00;146701.53;5031277;28;20284;-63
2022/12/12 02:31:25;;;;;;;306.33;51.50;;;;;;;-2.91;100.00;146713.03;5027834;28;20284;-64
2022/12/12 02:34:22;;;;;;;285.80;49.43;;;;;;;-2.88;100.00;146720.72;5022431;28;20338;-63
2022/12/12 02:37:00;;;;;;;287.33;50.00;;;;;;;-2.92;100.00;146709.19;5031814;28;20824;-64
2022/12/12 02:39:44;;;;;;;288.30;48.23;;;;;;;-2.97;100.00;146698.97;5030703;28;20276;-64
2022/12/12 02:42:28;;;;;;;276.97;49.50;;;;;;;-3.02;100.00;146686.19;5026090;28;20319;-64
2022/12/12 02:45:16;;;;;;;258.37;46.30;;;;;;;-3.05;100.00;146678.47;5026211;28;20280;-64
2022/12/12 02:47:50;;;;;;;270.40;46.73;;;;;;;-3.14;100.00;146654.22;5019431;28;20272;-64
2022/12/12 02:50:23;;;;;;;269.00;47.80;;;;;;;-3.09;100.00;146668.25;5034494;28;20756;-64
2022/12/12 02:52:49;;;;;;;279.67;48.57;;;;;;;-3.09;100.00;146668.25;5029469;28;20271;-64
2022/12/12 02:55:15;;;;;;;264.10;49.87;;;;;;;-3.10;100.00;146664.44;5030318;28;20694;-64
2022/12/12 02:57:41;;;;;;;279.77;49.07;;;;;;;-3.04;100.00;146681.03;5032544;28;20719;-64
2022/12/12 03:00:18;;;;;;;287.73;49.07;;;;;;;-2.97;100.00;146698.97;5031256;28;20287;-64
2022/12/12 03:08:36;;;;;;;256.77;46.93;;;;;;;-2.76;100.00;146751.44;5017338;28;20283;-64
2022/12/12 03:11:06;;;;;;;264.73;47.23;;;;;;;-2.69;100.00;146768.03;5029535;28;20288;-64
2022/12/12 03:14:16;;;;;;;255.97;48.43;;;;;;;-2.62;100.00;146785.97;5034080;28;20288;-64
2022/12/12 03:16:47;;;;;;;255.30;48.53;;;;;;;-2.56;100.00;146801.31;5024787;28;20276;-64
2022/12/12 03:19:27;;;;;;;252.95;50.60;;;;;;;-2.52;100.00;146811.59;5029766;28;20284;-64
2022/12/12 03:22:01;;;;;;;244.47;47.27;;;;;;;-2.49;100.00;146819.25;5031752;28;20041;-64
2022/12/12 03:25:10;;;;;;;237.73;46.40;;;;;;;-2.50;100.00;146816.69;5029628;28;20296;-64
2022/12/12 03:28:00;;;;;;;216.83;46.43;;;;;;;-2.49;100.00;146819.25;5022070;28;20295;-64
2022/12/12 03:30:28;;;;;;;228.87;46.40;;;;;;;-2.47;100.00;146824.38;5030384;28;20815;-64
2022/12/12 03:33:12;;;;;;;217.77;44.97;;;;;;;-2.46;100.00;146826.91;5031206;28;20703;-64
2022/12/12 03:35:45;;;;;;;221.10;45.10;;;;;;;-2.48;100.00;146821.81;5031473;28;20276;-64
2022/12/12 03:38:17;;;;;;;202.60;41.13;;;;;;;-2.44;100.00;146830.75;5029595;28;20345;-64
2022/12/12 03:40:48;;;;;;;197.37;43.23;;;;;;;-2.41;100.00;146839.75;5031219;28;20351;-64
2022/12/12 03:43:29;;;;;;;200.00;45.57;;;;;;;-2.45;100.00;146829.47;5030414;28;20759;-64
2022/12/12 03:46:02;;;;;;;197.80;39.15;;;;;;;-2.42;100.00;146835.91;5028044;28;20689;-64
2022/12/12 03:48:30;;;;;;;177.93;39.57;;;;;;;-2.36;100.00;146851.25;5031745;28;20030;-64
2022/12/12 03:51:03;;;;;;;181.50;42.77;;;;;;;-2.42;100.00;146837.19;5028376;28;20280;-64
2022/12/12 03:53:41;;;;;;;191.23;41.63;;;;;;;-2.45;100.00;146829.47;5030250;28;20279;-64
2022/12/12 03:56:16;;;;;;;179.57;41.73;;;;;;;-2.45;100.00;146828.19;5030048;28;20330;-64
2022/12/12 03:58:50;;;;;;;177.30;43.83;;;;;;;-2.48;100.00;146820.53;5030586;28;20369;-64
2022/12/12 04:01:19;;;;;;;174.93;40.23;;;;;;;-2.49;100.00;146819.25;5027436;28;20334;-64
2022/12/12 04:03:59;;;;;;;180.50;43.03;;;;;;;-2.44;100.00;146832.03;5029034;28;20778;-64
2022/12/12 04:07:00;;;;;;;174.07;40.07;;;;;;;-2.37;100.00;146849.97;5029955;28;20644;-64
2022/12/12 04:15:32;;;;;;;156.43;39.63;;;;;;;-2.41;100.00;146838.47;5029875;28;20314;-64
2022/12/12 04:18:05;;;;;;;169.40;38.73;;;;;;;-2.48;100.00;146820.53;5024944;28;20714;-64
2022/12/12 04:24:16;;;;;;;151.60;40.22;;;;;;;-2.61;100.00;146788.53;5039327;28;20330;-64
2022/12/12 04:26:51;;;;;;;149.63;39.37;;;;;;;-2.58;100.00;146794.94;5031391;28;20071;-64
2022/12/12 04:29:36;;;;;;;177.17;39.23;;;;;;;-2.59;100.00;146793.66;5027680;28;20694;-64
2022/12/12 04:32:23;;;;;;;166.90;40.50;;;;;;;-2.58;100.00;146796.19;5024115;28;20279;-64
2022/12/12 04:35:08;;;;;;;144.30;38.47;;;;;;;-2.58;100.00;146794.94;5023198;28;20307;-64
2022/12/12 04:37:53;;;;;;;147.03;36.73;;;;;;;-2.59;100.00;146793.66;5028405;28;20273;-64
2022/12/12 04:40:21;;;;;;;153.53;37.90;;;;;;;-2.61;100.00;146788.53;5030716;28;20351;-64
2022/12/12 04:42:55;;;;;;;150.07;38.70;;;;;;;-2.63;100.00;146783.44;5030010;28;20283;-64
2022/12/12 04:45:27;;;;;;;154.43;39.30;;;;;;;-2.63;100.00;146783.44;5026595;28;20298;-64
2022/12/12 04:47:55;;;;;;;147.83;38.10;;;;;;;-2.62;100.00;146785.97;5032984;28;20301;-64
2022/12/12 04:50:24;;;;;;;144.20;39.70;;;;;;;-2.61;100.00;146788.53;5030002;28;20291;-64
2022/12/12 04:52:53;;;;;;;137.73;38.10;;;;;;;-2.65;100.00;146778.31;5030867;28;20613;-64
2022/12/12 04:55:31;;;;;;;135.47;38.93;;;;;;;-2.68;100.00;146770.59;5029335;28;20759;-64
2022/12/12 04:57:58;;;;;;;145.23;37.67;;;;;;;-2.66;100.00;146777.03;5028351;28;20291;-64
2022/12/12 05:00:25;;;;;;;129.63;36.87;;;;;;;-2.66;100.00;146777.03;5027278;28;20453;-64
2022/12/12 05:02:54;;;;;;;138.90;37.17;;;;;;;-2.68;100.00;146771.88;5029411;28;20318;-64
2022/12/12 05:05:34;;;;;;;124.30;35.37;;;;;;;-2.71;100.00;146762.94;5020599;28;20297;-64
2022/12/12 05:08:10;;;;;;;127.90;36.40;;;;;;;-2.70;100.00;146765.50;5028297;28;20775;-64
2022/12/12 05:10:43;;;;;;;127.10;37.13;;;;;;;-2.71;100.00;146764.22;5034751;28;20647;-64
2022/12/12 05:13:17;;;;;;;130.00;36.33;;;;;;;-2.84;100.00;146730.94;5042194;28;20279;-64
2022/12/12 05:15:44;;;;;;;133.17;36.00;;;;;;;-2.88;100.00;146720.72;5015045;28;20291;-64
2022/12/12 05:18:10;;;;;;;127.17;35.13;;;;;;;-2.91;100.00;146711.75;5032348;28;20284;-64
2022/12/12 05:20:36;;;;;;;131.87;34.73;;;;;;;-2.97;100.00;146698.97;5032469;28;20287;-64
2022/12/12 05:23:01;;;;;;;127.30;34.97;;;;;;;-3.10;100.00;146665.72;5033697;28;20496;-64
2022/12/12 05:25:27;;;;;;;128.13;36.47;;;;;;;-3.23;100.00;146631.19;5032193;28;20037;-64
2022/12/12 05:27:52;;;;;;;130.43;36.00;;;;;;;-3.32;100.00;146609.44;5032166;28;20105;-64
2022/12/12 05:30:18;;;;;;;149.37;36.93;;;;;;;-3.39;100.00;146591.50;5031822;28;20037;-64
2022/12/12 05:32:43;;;;;;;144.37;37.20;;;;;;;-3.44;100.00;146578.72;5031246;28;20136;-63
2022/12/12 05:35:09;;;;;;;141.80;36.47;;;;;;;-3.58;100.00;146545.50;5032507;28;20032;-63
2022/12/12 05:37:35;;;;;;;157.10;41.80;;;;;;;-3.60;100.00;146540.38;5032891;28;20443;-63
2022/12/12 05:40:01;;;;;;;153.37;38.90;;;;;;;-3.59;100.00;146541.66;5032323;28;20359;-64
2022/12/12 05:42:26;;;;;;;158.93;38.80;;;;;;;-3.66;100.00;146523.75;5031977;28;20116;-63
2022/12/12 05:44:51;;;;;;;163.10;39.63;;;;;;;-3.70;100.00;146514.81;5032512;28;20079;-64
2022/12/12 05:47:17;;;;;;;172.57;40.50;;;;;;;-3.70;100.00;146513.53;5032394;28;20468;-64
2022/12/12 05:49:44;;;;;;;166.53;40.23;;;;;;;-3.68;100.00;146519.91;5034330;28;20535;-63
2022/12/12 05:52:09;;;;;;;163.67;40.63;;;;;;;-3.71;100.00;146510.97;5017412;28;20052;-64
2022/12/12 05:54:34;;;;;;;171.27;39.00;;;;;;;-3.85;100.00;146477.75;5030661;28;20276;-64
2022/12/12 05:57:00;;;;;;;168.93;38.20;;;;;;;-3.93;100.00;146456.00;5034833;28;20032;-64
2022/12/12 05:59:26;;;;;;;170.10;40.13;;;;;;;-3.98;100.00;146443.25;5031717;28;20555;-64
2022/12/12 06:01:51;;;;;;;182.90;40.43;;;;;;;-4.16;100.00;146399.78;5031500;28;20049;-64
2022/12/12 06:04:16;;;;;;;202.13;40.80;;;;;;;-4.23;100.00;146380.63;5034334;28;20040;-65
2022/12/12 06:06:42;;;;;;;199.93;40.13;;;;;;;-4.18;100.00;146393.38;5027832;28;20511;-64
2022/12/12 06:09:07;;;;;;;160.50;36.40;;;;;;;-4.13;100.00;146406.16;5032006;28;20052;-64
2022/12/12 06:11:32;;;;;;;127.43;28.77;;;;;;;-3.91;100.00;146462.38;5031152;28;20017;-64
2022/12/12 06:13:58;;;;;;;150.13;37.70;;;;;;;-3.87;100.00;146471.38;5027859;28;20053;-64
2022/12/12 06:16:23;;;;;;;162.73;39.63;;;;;;;-3.98;100.00;146443.25;5026651;28;20064;-64
2022/12/12 06:18:54;;;;;;;166.50;40.37;;;;;;;-4.07;100.00;146420.22;5034872;28;20492;-64
2022/12/12 06:21:20;;;;;;;167.83;39.87;;;;;;;-4.24;100.00;146379.34;5023693;28;20487;-64
2022/12/12 06:23:46;;;;;;;156.40;38.47;;;;;;;-4.21;100.00;146387.00;5026945;28;20329;-64
2022/12/12 06:26:13;;;;;;;151.40;37.57;;;;;;;-4.24;100.00;146379.34;5025356;28;20030;-64
2022/12/12 06:28:39;;;;;;;161.50;37.87;;;;;;;-4.31;100.00;146361.44;5030756;28;20276;-64
2022/12/12 06:31:05;;;;;;;198.23;41.80;;;;;;;-4.32;100.00;146357.63;5033812;28;20345;-64
2022/12/12 06:33:34;;;;;;;182.30;40.33;;;;;;;-4.36;100.00;146348.69;5033766;28;20431;-64
2022/12/12 06:36:08;;;;;;;149.97;35.10;;;;;;;-4.28;100.00;146369.09;5032551;28;20487;-65
2022/12/12 06:38:34;;;;;;;134.23;33.47;;;;;;;-4.23;100.00;146381.91;5031576;28;20280;-64
2022/12/12 06:41:05;;;;;;;154.77;37.47;;;;;;;-4.31;100.00;146360.19;5033708;28;20268;-64
2022/12/12 06:43:31;;;;;;;183.00;38.55;;;;;;;-4.38;100.00;146343.53;5033159;28;20276;-65
2022/12/12 06:46:03;;;;;;;185.40;42.80;;;;;;;-4.49;100.00;146316.72;5030980;28;20048;-64
2022/12/12 06:48:30;;;;;;;192.10;42.20;;;;;;;-4.55;100.00;146301.41;5033613;28;20029;-64
2022/12/12 06:50:55;;;;;;;198.07;42.93;;;;;;;-4.61;100.00;146284.78;5033168;28;20272;-64
2022/12/12 06:53:21;;;;;;;205.67;42.33;;;;;;;-4.67;100.00;146270.75;5032081;28;20272;-65
2022/12/12 06:55:46;;;;;;;217.00;43.17;;;;;;;-4.60;100.00;146288.66;5031180;28;20025;-64
2022/12/12 06:58:11;;;;;;;214.97;44.03;;;;;;;-4.58;100.00;146292.47;5033443;28;20025;-65
2022/12/12 07:00:37;;;;;;;204.93;40.97;;;;;;;-4.54;100.00;146302.69;5031644;28;20160;-65
2022/12/12 07:03:03;;;;;;;180.17;40.73;;;;;;;-4.57;100.00;146295.03;5032171;28;20025;-65
2022/12/12 07:05:28;;;;;;;192.80;39.83;;;;;;;-4.73;100.00;146256.69;5033105;28;20037;-65
2022/12/12 07:07:54;;;;;;;200.70;41.97;;;;;;;-4.91;100.00;146210.72;5032240;28;20353;-64
2022/12/12 07:10:19;;;;;;;218.30;42.73;;;;;;;-5.03;100.00;146181.38;5031455;28;20049;-64
2022/12/12 07:12:45;;;;;;;218.53;42.43;;;;;;;-4.87;100.00;146220.94;5033285;28;20045;-64
2022/12/12 07:15:10;;;;;;;225.67;43.73;;;;;;;-4.74;100.00;146252.84;5032415;28;20028;-65
2022/12/12 07:17:36;;;;;;;238.13;45.67;;;;;;;-4.84;100.00;146228.63;5033262;28;20041;-64
2022/12/12 07:20:02;;;;;;;209.67;42.40;;;;;;;-4.86;100.00;146223.47;5033450;28;20031;-64
2022/12/12 07:22:28;;;;;;;209.40;42.40;;;;;;;-4.88;100.00;146218.38;5027012;28;20068;-65
2022/12/12 07:24:54;;;;;;;218.50;43.70;;;;;;;-4.86;100.00;146223.47;5030833;28;20284;-65
2022/12/12 07:27:19;;;;;;;221.40;42.83;;;;;;;-4.76;100.00;146249.03;5033127;28;20125;-65
2022/12/12 07:29:45;;;;;;;202.93;40.17;;;;;;;-4.68;100.00;146268.22;5031588;28;20026;-65
2022/12/12 07:32:11;;;;;;;205.97;43.47;;;;;;;-4.66;100.00;146273.31;5033177;28;20116;-64
2022/12/12 07:34:36;;;;;;;221.87;44.33;;;;;;;-4.64;100.00;146277.13;5032452;28;20359;-64
2022/12/12 07:37:02;;;;;;;217.40;41.93;;;;;;;-4.68;100.00;146266.94;5030185;28;20152;-65
2022/12/12 07:39:31;;;;;;;188.00;40.10;;;;;;;-4.62;100.00;146282.22;5030323;28;20094;-65
2022/12/12 07:41:57;;;;;;;199.80;41.47;;;;;;;-4.56;100.00;146297.59;5032135;28;20037;-65
2022/12/12 07:44:22;;;;;;;221.60;46.23;;;;;;;-4.52;100.00;146309.06;5031491;28;20291;-65
2022/12/12 07:46:47;;;;;;;217.37;46.50;;;;;;;-4.45;100.00;146326.97;5032801;28;20030;-65
2022/12/12 07:49:13;;;;;;;204.00;42.70;;;;;;;-4.47;100.00;146320.59;5032642;28;20163;-65
2022/12/12 07:51:38;;;;;;;200.67;44.63;;;;;;;-4.44;100.00;146329.50;5031076;28;20025;-65
2022/12/12 07:54:04;;;;;;;222.37;44.73;;;;;;;-4.34;100.00;146353.78;5031963;28;20465;-65
2022/12/12 07:56:29;;;;;;;197.93;41.63;;;;;;;-4.23;100.00;146381.91;5020483;28;20030;-65
2022/12/12 07:58:54;;;;;;;182.43;39.80;;;;;;;-4.04;100.00;146427.88;5032328;28;20027;-65
2022/12/12 08:01:23;;;;;;;197.20;41.43;;;;;;;-3.95;100.00;146450.91;5031739;28;20115;-65
2022/12/12 08:03:49;;;;;;;196.37;45.50;;;;;;;-3.86;100.00;146473.94;5030564;28;20029;-65
2022/12/12 08:06:15;;;;;;;203.53;44.33;;;;;;;-3.79;100.00;146490.50;5030526;28;20618;-65
2022/12/12 08:08:42;;;;;;;195.83;45.27;;;;;;;-3.75;100.00;146500.78;5030179;28;20457;-65
2022/12/12 08:11:10;;;;;;;176.50;43.23;;;;;;;-3.68;100.00;146519.91;5030874;28;20760;-65
2022/12/12 08:13:36;;;;;;;158.63;39.60;;;;;;;-3.62;100.00;146535.28;5031671;28;20268;-65
2022/12/12 08:16:03;;;;;;;177.07;42.00;;;;;;;-3.50;100.00;146564.69;5030921;28;20268;-65
2022/12/12 08:18:29;;;;;;;155.90;41.43;;;;;;;-3.03;100.00;146682.31;5030979;28;20718;-65
2022/12/12 08:20:54;;;;;;;176.77;42.70;;;;;;;-2.47;100.00;146824.38;5031712;28;20272;-65
2022/12/12 08:23:20;;;;;;;146.90;40.10;;;;;;;-1.98;100.00;146947.28;5030416;28;20083;-65
2022/12/12 08:25:45;;;;;;;120.00;36.17;;;;;;;-1.66;100.00;147026.69;5030466;28;20040;-65
2022/12/12 08:28:11;;;;;;;119.27;33.67;;;;;;;-1.43;100.00;147084.34;5031173;28;20040;-65
2022/12/12 08:30:36;;;;;;;109.63;35.73;;;;;;;-1.24;100.00;147134.28;5032202;28;20421;-65
2022/12/12 08:33:01;;;;;;;104.10;33.27;;;;;;;-0.93;100.00;147211.22;5031084;28;20659;-65
2022/12/12 08:35:31;;;;;;;84.90;28.53;;;;;;;-0.69;100.00;147271.47;5034434;28;20048;-65
2022/12/12 08:37:58;;;;;;;81.63;28.47;;;;;;;-0.48;100.00;147324.06;5030356;28;20489;-65
2022/12/12 08:40:23;;;;;;;74.90;28.27;;;;;;;-0.28;100.00;147375.31;5028211;28;20504;-65
2022/12/12 08:42:48;;;;;;;73.03;27.97;;;;;;;-0.28;100.00;147375.31;5031603;28;20033;-65
2022/12/12 08:45:14;;;;;;;71.83;27.90;;;;;;;-0.33;100.00;147362.50;5031015;28;20038;-65
2022/12/12 08:47:39;;;;;;;73.17;27.17;;;;;;;-0.39;100.00;147347.09;5030095;28;20037;-65
2022/12/12 08:50:05;;;;;;;70.10;28.10;;;;;;;-0.55;100.00;147307.34;5030761;28;20029;-65
2022/12/12 08:52:31;;;;;;;61.93;25.43;;;;;;;-0.56;100.00;147304.78;5028066;28;20029;-65
2022/12/12 08:54:56;;;;;;;63.97;25.43;;;;;;;-0.86;100.00;147229.13;5030908;28;20385;-65
2022/12/12 08:57:22;;;;;;;64.57;25.63;;;;;;;-0.91;100.00;147217.59;5023426;28;20037;-65
2022/12/12 08:59:50;;;;;;;60.00;23.97;;;;;;;-1.03;100.00;147185.56;5030970;28;20025;-65
2022/12/12 09:02:15;;;;;;;71.43;26.20;;;;;;;-1.19;100.00;147147.13;5029500;28;20032;-65
2022/12/12 09:04:41;;;;;;;62.87;24.93;;;;;;;-1.31;100.00;147116.38;5028543;28;20026;-65
2022/12/12 09:07:06;;;;;;;62.20;24.03;;;;;;;-1.38;100.00;147098.41;5029926;28;20064;-64
2022/12/12 09:09:32;;;;;;;55.50;22.57;;;;;;;-1.44;100.00;147083.06;5031287;28;20037;-65
2022/12/12 09:11:57;;;;;;;57.90;22.70;;;;;;;-1.47;100.00;147076.63;5029907;28;20367;-64
2022/12/12 09:14:23;;;;;;;57.73;22.87;;;;;;;-1.57;100.00;147051.03;5028121;28;20025;-64
2022/12/12 09:16:49;;;;;;;64.50;24.53;;;;;;;-1.62;100.00;147036.94;5032420;28;20105;-65
2022/12/12 09:19:15;;;;;;;62.50;24.03;;;;;;;-1.67;100.00;147024.13;5028618;28;20116;-64
2022/12/12 09:21:40;;;;;;;62.83;25.63;;;;;;;-1.75;100.00;147004.91;5030709;28;20029;-65
2022/12/12 09:24:06;;;;;;;62.93;25.30;;;;;;;-1.89;100.00;146970.31;5029681;28;20123;-65
2022/12/12 09:26:31;;;;;;;70.73;27.03;;;;;;;-1.85;100.00;146979.28;5031198;28;20052;-65
2022/12/12 09:28:57;;;;;;;70.67;27.13;;;;;;;-1.85;100.00;146979.28;5027292;28;20319;-64
2022/12/12 09:31:22;;;;;;;62.60;24.63;;;;;;;-1.81;100.00;146990.84;5029095;28;20129;-65
2022/12/12 09:33:48;;;;;;;68.17;25.73;;;;;;;-1.91;100.00;146965.22;5029381;28;20504;-65
2022/12/12 09:36:13;;;;;;;63.17;24.63;;;;;;;-1.84;100.00;146981.84;5029501;28;20064;-65
2022/12/12 09:38:40;;;;;;;61.10;24.93;;;;;;;-1.89;100.00;146969.03;5025603;28;20363;-65
2022/12/12 09:41:08;;;;;;;72.20;26.57;;;;;;;-1.93;100.00;146960.09;5030739;28;20543;-64
2022/12/12 09:43:44;;;;;;;77.23;27.43;;;;;;;-2.00;100.00;146942.16;5031034;28;20260;-65
2022/12/12 09:46:32;;;;;;;74.03;27.03;;;;;;;-1.97;100.00;146949.81;5030336;28;20288;-65
2022/12/12 09:49:11;;;;;;;76.17;27.50;;;;;;;-2.03;100.00;146934.47;5029121;28;20287;-64
2022/12/12 09:51:37;;;;;;;66.13;26.43;;;;;;;-2.10;100.00;146916.53;5030750;28;20263;-65
2022/12/12 09:54:03;;;;;;;70.47;26.43;;;;;;;-2.11;100.00;146915.25;5020947;28;20287;-65
2022/12/12 09:56:58;;;;;;;74.40;26.60;;;;;;;-2.01;100.00;146939.59;5030437;28;20021;-64
2022/12/12 09:59:40;;;;;;;78.23;28.57;;;;;;;-2.02;100.00;146937.03;5030962;28;20027;-64
2022/12/12 10:02:44;;;;;;;56.30;21.30;;;;;;;-1.90;100.00;146967.78;5031472;28;20284;-65
2022/12/12 10:05:38;;;;;;;69.90;27.40;;;;;;;-1.90;100.00;146967.78;5033015;28;20292;-65
2022/12/12 10:08:15;;;;;;;69.27;25.70;;;;;;;-1.86;100.00;146978.00;5023747;28;20279;-65
2022/12/12 10:10:44;;;;;;;78.93;27.40;;;;;;;-1.77;100.00;147001.06;5026890;28;20312;-65
2022/12/12 10:13:20;;;;;;;73.20;26.63;;;;;;;-1.69;100.00;147019.00;5021147;28;20268;-65
2022/12/12 10:15:51;;;;;;;75.20;28.70;;;;;;;-1.69;100.00;147020.28;5034009;28;20291;-65
2022/12/12 10:18:24;;;;;;;68.27;25.30;;;;;;;-1.67;100.00;147024.13;5033339;28;20296;-65
2022/12/12 10:20:52;;;;;;;68.73;27.03;;;;;;;-1.58;100.00;147047.16;5051254;28;20318;-65
2022/12/12 10:23:47;;;;;;;75.30;27.37;;;;;;;-1.54;100.00;147057.44;5039721;28;20786;-65
2022/12/12 10:26:27;;;;;;;71.43;27.03;;;;;;;-1.50;100.00;147067.66;5032510;28;20740;-65
2022/12/12 10:29:08;;;;;;;74.03;28.70;;;;;;;-1.41;100.00;147090.75;5033473;28;20877;-65
2022/12/12 10:32:14;;;;;;;70.70;26.00;;;;;;;-1.41;100.00;147090.75;5030680;28;20282;-65
2022/12/12 10:34:53;;;;;;;74.73;27.27;;;;;;;-1.49;100.00;147071.50;5014429;28;20657;-65
2022/12/12 10:37:34;;;;;;;67.80;25.43;;;;;;;-1.34;100.00;147108.66;5031534;28;20325;-65
2022/12/12 10:40:02;;;;;;;67.73;25.97;;;;;;;-1.34;100.00;147108.66;5032468;28;20265;-66
2022/12/12 10:42:40;;;;;;;69.20;25.13;;;;;;;-1.48;100.00;147072.78;5032996;28;20061;-65
2022/12/12 10:45:14;;;;;;;77.60;27.00;;;;;;;-1.62;100.00;147036.94;5031482;28;20034;-66
2022/12/12 10:47:40;;;;;;;64.27;26.13;;;;;;;-1.54;100.00;147057.44;5033664;28;20034;-65
2022/12/12 10:50:24;;;;;;;75.90;28.00;;;;;;;-1.47;100.00;147076.63;5032265;28;20029;-65
2022/12/12 10:52:49;;;;;;;68.67;26.77;;;;;;;-1.34;100.00;147108.66;5031854;28;20025;-66
2022/12/12 10:55:38;;;;;;;68.40;27.47;;;;;;;-1.36;100.00;147102.25;5031909;28;20354;-65
2022/12/12 10:58:04;;;;;;;67.07;26.50;;;;;;;-1.22;100.00;147139.41;5032766;28;20037;-65
2022/12/12 11:00:37;;;;;;;62.60;23.50;;;;;;;-1.02;100.00;147189.41;5031981;28;20039;-65
2022/12/12 11:03:18;;;;;;;64.67;25.70;;;;;;;-0.83;100.00;147236.84;5024305;28;20491;-66
2022/12/12 11:05:44;;;;;;;70.00;27.83;;;;;;;-0.89;100.00;147222.72;5033549;28;20029;-65
2022/12/12 11:08:29;;;;;;;64.80;25.17;;;;;;;-0.73;100.00;147261.19;5031990;28;20378;-65
2022/12/12 11:11:05;;;;;;;64.87;23.97;;;;;;;-0.45;100.00;147333.00;5030596;28;20033;-65
2022/12/12 11:13:38;;;;;;;70.97;26.93;;;;;;;-0.34;100.00;147361.22;5032626;28;20025;-65
2022/12/12 11:16:14;;;;;;;66.00;27.33;;;;;;;-0.31;100.00;147367.63;5033032;28;20421;-65
2022/12/12 11:18:39;;;;;;;66.00;27.40;;;;;;;-0.16;100.00;147406.09;5031615;28;20462;-65
2022/12/12 11:21:11;;;;;;;62.80;26.07;;;;;;;-0.05;100.00;147433.03;5029324;28;20108;-66
2022/12/12 11:23:40;;;;;;;64.27;26.17;;;;;;;0.07;100.00;147462.56;5029798;28;20021;-63
2022/12/12 11:26:17;;;;;;;70.37;25.83;;;;;;;0.14;100.00;147480.53;5031032;28;20408;-63
2022/12/12 11:28:50;;;;;;;58.53;22.37;;;;;;;0.12;100.00;147475.38;5024326;28;20029;-64